Time;durP1;ratioP1;P1;durP2;ratioP2;P2;SDS_P1;SDS_P2;PMS_P1;PMS_P2;Temp;Humidity;BMP_temperature;BMP_pressure;BME280_temperature;BME280_humidity;BME280_pressure;Samples;Min_cycle;Max_cycle;Signal;HPM_P1;HPM_P2
2023/05/08 00:01:10;;;;;;;;;11.00;9.67;;;;;;;;5033142;28;9143;-81
2023/05/08 00:03:38;;;;;;;;;11.00;11.00;;;;;;;;5029088;28;9237;-79
2023/05/08 00:06:06;;;;;;;;;16.67;13.00;;;;;;;;5028696;28;9382;-80
2023/05/08 00:08:33;;;;;;;;;12.00;11.67;;;;;;;;5027911;28;9234;-79
2023/05/08 00:11:01;;;;;;;;;11.67;10.00;;;;;;;;5024491;28;9436;-79
2023/05/08 00:13:28;;;;;;;;;13.33;10.67;;;;;;;;5024340;28;9181;-80
2023/05/08 00:15:55;;;;;;;;;11.00;9.00;;;;;;;;5011296;28;9164;-79
2023/05/08 00:18:22;;;;;;;;;11.67;10.00;;;;;;;;5011810;28;9146;-79
2023/05/08 00:20:51;;;;;;;;;9.00;9.00;;;;;;;;5021903;28;9379;-79
2023/05/08 00:23:20;;;;;;;;;11.00;9.33;;;;;;;;5027708;28;9095;-80
2023/05/08 00:25:48;;;;;;;;;6.75;6.75;;;;;;;;5016765;28;8946;-79
2023/05/08 00:28:15;;;;;;;;;9.25;9.25;;;;;;;;5027789;28;8928;-80
2023/05/08 00:30:42;;;;;;;;;9.50;9.50;;;;;;;;5027751;28;8795;-80
2023/05/08 00:33:10;;;;;;;;;10.75;10.50;;;;;;;;5028375;28;8870;-80
2023/05/08 00:35:39;;;;;;;;;13.75;12.50;;;;;;;;5028421;28;8876;-79
2023/05/08 00:38:08;;;;;;;;;14.00;12.00;;;;;;;;5030816;28;8879;-80
2023/05/08 00:40:35;;;;;;;;;10.75;10.75;;;;;;;;5038244;28;9003;-79
2023/05/08 00:43:03;;;;;;;;;13.25;11.50;;;;;;;;5029428;28;8850;-80
2023/05/08 00:45:35;;;;;;;;;11.25;10.00;;;;;;;;5029659;28;8877;-79
2023/05/08 00:48:02;;;;;;;;;11.75;11.75;;;;;;;;5027770;28;8864;-79
2023/05/08 00:50:30;;;;;;;;;13.25;13.25;;;;;;;;5028098;28;8850;-80
2023/05/08 00:52:57;;;;;;;;;12.25;12.25;;;;;;;;5026458;28;8892;-79
2023/05/08 00:55:29;;;;;;;;;13.50;12.00;;;;;;;;5020517;28;9620;-80
2023/05/08 00:57:58;;;;;;;;;11.00;11.00;;;;;;;;5026306;28;8834;-80
2023/05/08 01:00:25;;;;;;;;;20.50;14.00;;;;;;;;5027507;28;8805;-80
2023/05/08 01:02:53;;;;;;;;;12.00;12.00;;;;;;;;5025951;28;8842;-80
2023/05/08 01:05:20;;;;;;;;;12.00;12.00;;;;;;;;5035137;28;8963;-80
2023/05/08 01:07:47;;;;;;;;;16.00;16.00;;;;;;;;5030981;28;8983;-80
2023/05/08 01:10:15;;;;;;;;;14.67;13.00;;;;;;;;5033987;28;9015;-80
2023/05/08 01:13:01;;;;;;;;;16.00;13.67;;;;;;;;5029568;28;8929;-79
2023/05/08 01:15:31;;;;;;;;;16.50;14.00;;;;;;;;5016698;28;8962;-80
2023/05/08 01:18:06;;;;;;;;;19.00;17.67;;;;;;;;5020604;28;8913;-80
2023/05/08 01:20:42;;;;;;;;;17.00;15.67;;;;;;;;5030886;28;8962;-80
2023/05/08 01:23:43;;;;;;;;;13.50;11.50;;;;;;;;5031097;28;9815;-80
2023/05/08 01:26:48;;;;;;;;;13.25;13.25;;;;;;;;5023836;28;8869;-80
2023/05/08 01:29:48;;;;;;;;;19.25;15.75;;;;;;;;5030722;28;8869;-79
2023/05/08 01:32:19;;;;;;;;;17.67;15.00;;;;;;;;5030355;28;8794;-79
2023/05/08 01:34:52;;;;;;;;;16.75;15.75;;;;;;;;5020782;28;9041;-80
2023/05/08 01:37:25;;;;;;;;;14.00;12.25;;;;;;;;5030587;28;8864;-79
2023/05/08 01:40:11;;;;;;;;;14.00;14.00;;;;;;;;5031087;28;8878;-79
2023/05/08 01:42:49;;;;;;;;;17.33;15.00;;;;;;;;5021653;28;8919;-80
2023/05/08 01:45:21;;;;;;;;;20.33;19.33;;;;;;;;5030658;28;8919;-79
2023/05/08 01:47:52;;;;;;;;;19.25;14.75;;;;;;;;5027247;28;8935;-80
2023/05/08 01:50:28;;;;;;;;;14.67;14.67;;;;;;;;5027342;28;8846;-80
2023/05/08 01:53:00;;;;;;;;;17.00;17.00;;;;;;;;5030148;28;8938;-80
2023/05/08 01:55:31;;;;;;;;;19.00;17.00;;;;;;;;5029909;28;9153;-80
2023/05/08 01:58:00;;;;;;;;;17.67;17.33;;;;;;;;5030612;28;8993;-80
2023/05/08 02:00:28;;;;;;;;;19.33;16.00;;;;;;;;5029445;28;9163;-80
2023/05/08 02:02:59;;;;;;;;;19.67;18.67;;;;;;;;5031204;28;9170;-79
2023/05/08 02:05:28;;;;;;;;;21.00;19.67;;;;;;;;5024548;28;9407;-79
2023/05/08 02:07:58;;;;;;;;;19.50;19.50;;;;;;;;5030002;28;9308;-80
2023/05/08 02:10:26;;;;;;;;;20.67;19.00;;;;;;;;5039059;28;9614;-80
2023/05/08 02:12:54;;;;;;;;;25.00;21.75;;;;;;;;5026806;28;9400;-80
2023/05/08 02:15:22;;;;;;;;;18.25;17.00;;;;;;;;5029614;28;9469;-80
2023/05/08 02:17:51;;;;;;;;;14.33;12.33;;;;;;;;5029247;28;9554;-80
2023/05/08 02:20:20;;;;;;;;;17.33;16.00;;;;;;;;5029827;28;9554;-80
2023/05/08 02:22:50;;;;;;;;;18.00;18.00;;;;;;;;5030137;28;9363;-80
2023/05/08 02:25:18;;;;;;;;;21.67;20.33;;;;;;;;5023513;28;9231;-80
2023/05/08 02:27:48;;;;;;;;;17.33;15.67;;;;;;;;5030046;28;10152;-79
2023/05/08 02:30:16;;;;;;;;;17.67;13.67;;;;;;;;5030123;28;9268;-79
2023/05/08 02:32:45;;;;;;;;;16.00;11.33;;;;;;;;5030260;28;9110;-79
2023/05/08 02:35:15;;;;;;;;;19.00;16.67;;;;;;;;5030968;28;9295;-79
2023/05/08 02:37:46;;;;;;;;;17.33;16.00;;;;;;;;5031160;28;9849;-79
2023/05/08 02:40:15;;;;;;;;;22.33;18.33;;;;;;;;5026000;28;9212;-80
2023/05/08 02:42:42;;;;;;;;;18.33;13.33;;;;;;;;5030057;28;9167;-80
2023/05/08 02:45:11;;;;;;;;;16.33;14.00;;;;;;;;5029570;28;9108;-79
2023/05/08 02:47:43;;;;;;;;;19.67;16.00;;;;;;;;5021586;28;9240;-80
2023/05/08 02:50:17;;;;;;;;;12.33;12.00;;;;;;;;5017158;28;9351;-79
2023/05/08 02:52:49;;;;;;;;;15.00;14.33;;;;;;;;5029054;28;9346;-80
2023/05/08 02:55:24;;;;;;;;;13.67;12.00;;;;;;;;5028393;28;9262;-79
2023/05/08 02:57:57;;;;;;;;;11.33;11.33;;;;;;;;5025284;28;9217;-80
2023/05/08 03:00:29;;;;;;;;;11.00;9.67;;;;;;;;5025144;28;9245;-80
2023/05/08 03:03:00;;;;;;;;;8.33;8.33;;;;;;;;5029741;28;9228;-79
2023/05/08 03:05:31;;;;;;;;;13.00;10.00;;;;;;;;5030636;28;9225;-80
2023/05/08 03:08:03;;;;;;;;;11.67;11.67;;;;;;;;5029132;28;9191;-79
2023/05/08 03:10:34;;;;;;;;;9.00;9.00;;;;;;;;5024514;28;9217;-80
2023/05/08 03:13:03;;;;;;;;;12.33;12.00;;;;;;;;5023118;28;9248;-80
2023/05/08 03:15:35;;;;;;;;;10.67;10.67;;;;;;;;5022941;28;9209;-79
2023/05/08 03:18:06;;;;;;;;;8.00;8.00;;;;;;;;5028756;28;9004;-79
2023/05/08 03:20:38;;;;;;;;;11.67;8.67;;;;;;;;5028567;28;9012;-79
2023/05/08 03:23:09;;;;;;;;;9.33;8.00;;;;;;;;5029056;28;9333;-79
2023/05/08 03:25:38;;;;;;;;;9.00;9.00;;;;;;;;5027870;28;9033;-80
2023/05/08 03:28:07;;;;;;;;;6.67;6.67;;;;;;;;5029165;28;9092;-80
2023/05/08 03:30:37;;;;;;;;;11.00;9.33;;;;;;;;5026391;28;9004;-80
2023/05/08 03:33:06;;;;;;;;;9.00;9.00;;;;;;;;5029482;28;9168;-79
2023/05/08 03:35:35;;;;;;;;;8.33;8.33;;;;;;;;5016747;28;9015;-81
2023/05/08 03:38:02;;;;;;;;;8.50;7.25;;;;;;;;5028781;28;9954;-80
2023/05/08 03:40:35;;;;;;;;;8.50;7.50;;;;;;;;5034298;28;8850;-80
2023/05/08 03:43:03;;;;;;;;;9.00;7.33;;;;;;;;5021884;28;8955;-79
2023/05/08 03:45:31;;;;;;;;;7.50;6.25;;;;;;;;5026085;28;9663;-79
2023/05/08 03:48:00;;;;;;;;;7.75;5.75;;;;;;;;5022841;28;9658;-79
2023/05/08 03:50:27;;;;;;;;;7.00;7.00;;;;;;;;5027079;28;8977;-78
2023/05/08 03:52:55;;;;;;;;;8.50;7.00;;;;;;;;5030155;28;8954;-80
2023/05/08 03:55:22;;;;;;;;;6.00;6.00;;;;;;;;5026858;28;8843;-79
2023/05/08 03:58:00;;;;;;;;;6.75;6.75;;;;;;;;5018644;28;8830;-79
2023/05/08 04:00:36;;;;;;;;;7.25;5.75;;;;;;;;5030756;28;8713;-80
2023/05/08 04:03:14;;;;;;;;;5.75;5.75;;;;;;;;5049979;28;8854;-80
2023/05/08 04:05:47;;;;;;;;;6.25;6.25;;;;;;;;5048460;28;8860;-80
2023/05/08 04:08:20;;;;;;;;;7.25;5.50;;;;;;;;5042926;28;8839;-79
2023/05/08 04:10:54;;;;;;;;;7.00;5.50;;;;;;;;5048055;28;8886;-79
2023/05/08 04:13:27;;;;;;;;;7.50;6.75;;;;;;;;5039917;28;8866;-79
2023/05/08 04:16:01;;;;;;;;;6.75;6.75;;;;;;;;5042995;28;8843;-79
2023/05/08 04:18:29;;;;;;;;;7.75;7.75;;;;;;;;5044580;28;8829;-80
2023/05/08 04:21:00;;;;;;;;;6.75;6.75;;;;;;;;5030578;28;8917;-80
2023/05/08 04:23:29;;;;;;;;;8.67;8.67;;;;;;;;5031311;28;8840;-78
2023/05/08 04:25:57;;;;;;;;;6.00;6.00;;;;;;;;5049799;28;8924;-79
2023/05/08 04:28:25;;;;;;;;;7.00;7.00;;;;;;;;5048555;28;8829;-79
2023/05/08 04:30:53;;;;;;;;;5.33;5.00;;;;;;;;5037433;28;8833;-79
2023/05/08 04:33:23;;;;;;;;;6.33;6.33;;;;;;;;5023950;28;8932;-79
2023/05/08 04:35:51;;;;;;;;;6.00;6.00;;;;;;;;5027463;28;9346;-79
2023/05/08 04:38:18;;;;;;;;;6.67;6.67;;;;;;;;5021996;28;9070;-79
2023/05/08 04:40:46;;;;;;;;;5.67;5.67;;;;;;;;5030722;28;9105;-81
2023/05/08 04:43:13;;;;;;;;;5.00;5.00;;;;;;;;5020038;28;9142;-79
2023/05/08 04:45:42;;;;;;;;;7.00;7.00;;;;;;;;5030136;28;9249;-79
2023/05/08 04:48:09;;;;;;;;;6.00;6.00;;;;;;;;5025265;28;9231;-79
2023/05/08 04:50:36;;;;;;;;;6.33;5.33;;;;;;;;5020991;28;9252;-79
2023/05/08 04:53:03;;;;;;;;;7.00;6.00;;;;;;;;5030689;28;9183;-79
2023/05/08 04:55:30;;;;;;;;;8.67;8.33;;;;;;;;5032233;28;9246;-80
2023/05/08 04:58:00;;;;;;;;;6.00;6.00;;;;;;;;5029554;28;9182;-79
2023/05/08 05:00:28;;;;;;;;;8.67;8.67;;;;;;;;5030906;28;9089;-80
2023/05/08 05:02:57;;;;;;;;;10.00;9.00;;;;;;;;5043390;28;9015;-79
2023/05/08 05:05:24;;;;;;;;;6.67;6.67;;;;;;;;5026698;28;9150;-79
2023/05/08 05:07:52;;;;;;;;;5.33;5.33;;;;;;;;5050749;28;9396;-79
2023/05/08 05:10:19;;;;;;;;;7.00;7.00;;;;;;;;5050284;28;9079;-80
2023/05/08 05:12:46;;;;;;;;;7.00;7.00;;;;;;;;5050874;28;9182;-80
2023/05/08 05:15:13;;;;;;;;;6.67;6.67;;;;;;;;5046057;28;9156;-79
2023/05/08 05:17:41;;;;;;;;;8.33;7.00;;;;;;;;5051217;28;9356;-80
2023/05/08 05:20:11;;;;;;;;;9.33;9.33;;;;;;;;5060160;28;9403;-79
2023/05/08 05:22:38;;;;;;;;;10.75;9.25;;;;;;;;5051087;28;9573;-80
2023/05/08 05:25:06;;;;;;;;;10.75;10.75;;;;;;;;5050353;28;9458;-79
2023/05/08 05:27:35;;;;;;;;;10.25;9.00;;;;;;;;5048434;28;9570;-78
2023/05/08 05:30:03;;;;;;;;;10.00;10.00;;;;;;;;5050372;28;9544;-80
2023/05/08 05:32:30;;;;;;;;;8.00;8.00;;;;;;;;5039544;28;9777;-79
2023/05/08 05:34:57;;;;;;;;;8.50;8.00;;;;;;;;5031027;28;9599;-80
2023/05/08 05:37:26;;;;;;;;;8.00;8.00;;;;;;;;5032467;28;9681;-78
2023/05/08 05:39:53;;;;;;;;;10.00;10.00;;;;;;;;5039243;28;9824;-79
2023/05/08 05:42:20;;;;;;;;;8.75;8.75;;;;;;;;5029561;28;10154;-80
2023/05/08 05:44:48;;;;;;;;;8.75;8.75;;;;;;;;5030750;28;9966;-79
2023/05/08 05:47:15;;;;;;;;;6.75;6.75;;;;;;;;5028787;28;9959;-79
2023/05/08 05:49:45;;;;;;;;;8.00;8.00;;;;;;;;5020214;28;9698;-79
2023/05/08 05:52:12;;;;;;;;;7.25;7.00;;;;;;;;5025812;28;9756;-79
2023/05/08 05:54:41;;;;;;;;;9.00;9.00;;;;;;;;5030862;28;9908;-81
2023/05/08 05:57:08;;;;;;;;;4.00;4.00;;;;;;;;5025692;28;9774;-79
2023/05/08 05:59:36;;;;;;;;;7.00;7.00;;;;;;;;5025023;28;9647;-80
2023/05/08 06:02:03;;;;;;;;;9.00;8.75;;;;;;;;5029774;28;10463;-79
2023/05/08 06:04:30;;;;;;;;;7.00;7.00;;;;;;;;5030793;28;9610;-80
2023/05/08 06:07:00;;;;;;;;;13.25;11.25;;;;;;;;5030671;28;9489;-79
2023/05/08 06:09:27;;;;;;;;;10.50;8.75;;;;;;;;5024049;28;9525;-80
2023/05/08 06:11:56;;;;;;;;;7.00;7.00;;;;;;;;5030962;28;9682;-79
2023/05/08 06:14:23;;;;;;;;;7.50;7.50;;;;;;;;5027848;28;9531;-80
2023/05/08 06:16:50;;;;;;;;;6.00;4.50;;;;;;;;5021868;28;9555;-76
2023/05/08 06:19:17;;;;;;;;;12.25;9.25;;;;;;;;5016644;28;9706;-76
2023/05/08 06:21:45;;;;;;;;;12.75;10.25;;;;;;;;5029246;28;9698;-77
2023/05/08 06:24:12;;;;;;;;;10.50;8.50;;;;;;;;5032783;28;10550;-76
2023/05/08 06:26:40;;;;;;;;;13.75;9.25;;;;;;;;5028427;28;9614;-80
2023/05/08 06:29:09;;;;;;;;;6.25;6.00;;;;;;;;5025961;28;9526;-79
2023/05/08 06:31:36;;;;;;;;;8.25;8.25;;;;;;;;5028164;28;9498;-79
2023/05/08 06:34:03;;;;;;;;;8.25;6.25;;;;;;;;5026190;28;9575;-77
2023/05/08 06:36:31;;;;;;;;;11.50;9.00;;;;;;;;5021800;28;9614;-76
2023/05/08 06:38:58;;;;;;;;;9.50;9.50;;;;;;;;5026805;28;9606;-79
2023/05/08 06:41:25;;;;;;;;;8.00;8.00;;;;;;;;5022438;28;9534;-76
2023/05/08 06:43:53;;;;;;;;;7.00;6.00;;;;;;;;5033958;28;9387;-77
2023/05/08 06:46:21;;;;;;;;;6.00;6.00;;;;;;;;5027919;28;9490;-78
2023/05/08 06:48:48;;;;;;;;;9.00;9.00;;;;;;;;5028146;28;9256;-79
2023/05/08 06:51:15;;;;;;;;;6.00;6.00;;;;;;;;5026749;28;9254;-79
2023/05/08 06:53:43;;;;;;;;;7.67;7.33;;;;;;;;5028922;28;9249;-79
2023/05/08 06:56:10;;;;;;;;;6.00;6.00;;;;;;;;5028779;28;9306;-77
2023/05/08 06:58:37;;;;;;;;;8.00;8.00;;;;;;;;5028627;28;9198;-78
2023/05/08 07:01:04;;;;;;;;;9.00;8.00;;;;;;;;5033639;28;9283;-79
2023/05/08 07:03:34;;;;;;;;;8.00;6.00;;;;;;;;5048740;28;9219;-80
2023/05/08 07:06:01;;;;;;;;;9.00;9.00;;;;;;;;5046735;28;9318;-77
2023/05/08 07:08:31;;;;;;;;;9.33;8.00;;;;;;;;5057388;28;9232;-77
2023/05/08 07:10:59;;;;;;;;;6.00;6.00;;;;;;;;5051475;28;10055;-79
2023/05/08 07:13:26;;;;;;;;;10.00;8.00;;;;;;;;5048838;28;9025;-78
2023/05/08 07:15:54;;;;;;;;;6.33;6.33;;;;;;;;5047492;28;9230;-79
2023/05/08 07:18:21;;;;;;;;;10.33;8.00;;;;;;;;5041393;28;9092;-80
2023/05/08 07:20:49;;;;;;;;;7.00;7.00;;;;;;;;5045399;28;9080;-77
2023/05/08 07:23:16;;;;;;;;;4.33;4.33;;;;;;;;5048288;28;9118;-79
2023/05/08 07:25:44;;;;;;;;;9.25;7.75;;;;;;;;5047367;28;9683;-78
2023/05/08 07:28:11;;;;;;;;;8.75;5.75;;;;;;;;5047857;28;8925;-79
2023/05/08 07:30:38;;;;;;;;;7.00;7.00;;;;;;;;5042323;28;8775;-76
2023/05/08 07:33:05;;;;;;;;;4.50;4.00;;;;;;;;5028029;28;8858;-75
2023/05/08 07:35:33;;;;;;;;;3.50;2.00;;;;;;;;5027925;28;8873;-75
2023/05/08 07:38:01;;;;;;;;;7.75;7.00;;;;;;;;5034112;28;8855;-75
2023/05/08 07:40:29;;;;;;;;;11.25;10.00;;;;;;;;5026931;28;8876;-75
2023/05/08 07:42:56;;;;;;;;;8.75;8.50;;;;;;;;5022769;28;8849;-76
2023/05/08 07:45:23;;;;;;;;;8.00;8.00;;;;;;;;5022888;28;8877;-74
2023/05/08 07:47:51;;;;;;;;;10.75;8.75;;;;;;;;5027991;28;9030;-75
2023/05/08 07:50:19;;;;;;;;;9.00;6.00;;;;;;;;5023748;28;8872;-78
2023/05/08 07:52:46;;;;;;;;;7.00;6.25;;;;;;;;5026879;28;8838;-75
2023/05/08 07:55:15;;;;;;;;;7.50;7.50;;;;;;;;5025552;28;8858;-74
2023/05/08 07:57:43;;;;;;;;;8.50;8.00;;;;;;;;5029631;28;9723;-74
2023/05/08 08:00:12;;;;;;;;;9.00;6.00;;;;;;;;5027486;28;8826;-73
2023/05/08 08:02:39;;;;;;;;;9.75;8.25;;;;;;;;5029096;28;8860;-74
2023/05/08 08:05:08;;;;;;;;;7.50;7.50;;;;;;;;5028335;28;8893;-74
2023/05/08 08:07:35;;;;;;;;;7.00;7.00;;;;;;;;5024439;28;8846;-75
2023/05/08 08:10:03;;;;;;;;;7.25;5.50;;;;;;;;5010058;28;8846;-75
2023/05/08 08:12:32;;;;;;;;;6.00;6.00;;;;;;;;5026948;28;8842;-75
2023/05/08 08:14:59;;;;;;;;;6.25;6.00;;;;;;;;5027861;28;8842;-75
2023/05/08 08:17:27;;;;;;;;;6.75;5.00;;;;;;;;5027850;28;9662;-75
2023/05/08 08:19:54;;;;;;;;;7.00;7.00;;;;;;;;5027103;28;8866;-75
2023/05/08 08:22:21;;;;;;;;;5.00;5.00;;;;;;;;5015801;28;8846;-75
2023/05/08 08:24:48;;;;;;;;;4.75;4.75;;;;;;;;5027090;28;8850;-75
2023/05/08 08:27:16;;;;;;;;;8.75;7.00;;;;;;;;5027017;28;8826;-76
2023/05/08 08:29:45;;;;;;;;;7.50;7.50;;;;;;;;5026371;28;8890;-75
2023/05/08 08:32:12;;;;;;;;;11.00;9.00;;;;;;;;5025571;28;8823;-75
2023/05/08 08:34:39;;;;;;;;;7.25;7.25;;;;;;;;5028318;28;8862;-77
2023/05/08 08:37:07;;;;;;;;;5.50;4.00;;;;;;;;5027939;28;8842;-76
2023/05/08 08:39:34;;;;;;;;;5.25;5.25;;;;;;;;5025915;28;9814;-76
2023/05/08 08:42:02;;;;;;;;;9.00;6.00;;;;;;;;5026603;28;9566;-76
2023/05/08 08:44:29;;;;;;;;;6.00;6.00;;;;;;;;5027651;28;8842;-77
2023/05/08 08:46:59;;;;;;;;;8.50;6.75;;;;;;;;5027579;28;8869;-76
2023/05/08 08:49:30;;;;;;;;;9.25;6.75;;;;;;;;5027205;28;8873;-75
2023/05/08 08:52:02;;;;;;;;;7.00;7.00;;;;;;;;5028639;28;8835;-75
2023/05/08 08:54:31;;;;;;;;;9.00;9.00;;;;;;;;5024506;28;8826;-75
2023/05/08 08:57:01;;;;;;;;;8.25;6.25;;;;;;;;5026128;28;8830;-76
2023/05/08 08:59:30;;;;;;;;;9.75;8.00;;;;;;;;5021614;28;8850;-77
2023/05/08 09:02:06;;;;;;;;;7.25;7.25;;;;;;;;5025387;28;8849;-75
2023/05/08 09:04:34;;;;;;;;;8.00;8.00;;;;;;;;5021718;28;9660;-75
2023/05/08 09:07:04;;;;;;;;;9.75;8.25;;;;;;;;5023651;28;8872;-77
2023/05/08 09:09:32;;;;;;;;;8.00;8.00;;;;;;;;5018867;28;8854;-77
2023/05/08 09:11:59;;;;;;;;;7.75;7.75;;;;;;;;5028581;28;8822;-78
2023/05/08 09:14:27;;;;;;;;;8.25;8.00;;;;;;;;5027475;28;8961;-77
2023/05/08 09:16:54;;;;;;;;;6.00;6.00;;;;;;;;5037121;28;8842;-78
2023/05/08 09:19:23;;;;;;;;;9.50;6.50;;;;;;;;5026238;28;9641;-77
2023/05/08 09:21:52;;;;;;;;;7.75;7.00;;;;;;;;5021206;28;8860;-77
2023/05/08 09:24:19;;;;;;;;;11.50;7.00;;;;;;;;5036388;28;8833;-77
2023/05/08 09:26:46;;;;;;;;;7.25;6.25;;;;;;;;5025060;28;8889;-77
2023/05/08 09:29:15;;;;;;;;;6.25;6.25;;;;;;;;5030396;28;8855;-75
2023/05/08 09:31:44;;;;;;;;;6.25;6.25;;;;;;;;5030179;28;8786;-75
2023/05/08 09:34:22;;;;;;;;;7.75;7.75;;;;;;;;5026454;28;8847;-76
2023/05/08 09:36:51;;;;;;;;;11.00;8.75;;;;;;;;5030172;28;8939;-75
2023/05/08 09:39:24;;;;;;;;;8.50;6.50;;;;;;;;5030589;28;8846;-74
2023/05/08 09:41:58;;;;;;;;;8.00;7.00;;;;;;;;5032313;28;8892;-74
2023/05/08 09:44:25;;;;;;;;;7.25;7.00;;;;;;;;5034964;28;8846;-76
2023/05/08 09:46:54;;;;;;;;;9.50;8.00;;;;;;;;5032824;28;8861;-79
2023/05/08 09:49:22;;;;;;;;;7.00;7.00;;;;;;;;5033171;28;8968;-76
2023/05/08 09:51:54;;;;;;;;;8.00;6.50;;;;;;;;5028500;28;8862;-79
2023/05/08 09:54:21;;;;;;;;;10.00;8.00;;;;;;;;5030481;28;8866;-72
2023/05/08 09:56:48;;;;;;;;;8.75;7.00;;;;;;;;5030615;28;8826;-76
2023/05/08 09:59:26;;;;;;;;;8.75;7.25;;;;;;;;5029680;28;8854;-77
2023/05/08 10:01:53;;;;;;;;;7.25;7.25;;;;;;;;5029341;28;8920;-75
2023/05/08 10:04:32;;;;;;;;;7.75;7.75;;;;;;;;5028415;28;8873;-76
2023/05/08 10:07:01;;;;;;;;;7.00;5.50;;;;;;;;5031082;28;9005;-79
2023/05/08 10:09:28;;;;;;;;;10.00;7.00;;;;;;;;5029769;28;8834;-76
2023/05/08 10:11:56;;;;;;;;;7.75;7.75;;;;;;;;5029457;28;8850;-74
2023/05/08 10:14:24;;;;;;;;;7.75;7.75;;;;;;;;5028843;28;8846;-75
2023/05/08 10:16:53;;;;;;;;;7.00;7.00;;;;;;;;5029484;28;8850;-75
2023/05/08 10:19:21;;;;;;;;;9.50;8.00;;;;;;;;5029210;28;9217;-76
2023/05/08 10:21:50;;;;;;;;;11.00;11.00;;;;;;;;5029250;28;8855;-75
2023/05/08 10:24:19;;;;;;;;;11.75;11.75;;;;;;;;5029083;28;8866;-75
2023/05/08 10:26:55;;;;;;;;;17.00;13.50;;;;;;;;5029201;28;8870;-75
2023/05/08 10:29:33;;;;;;;;;17.00;12.25;;;;;;;;5026511;28;8862;-74
2023/05/08 10:32:00;;;;;;;;;11.50;11.00;;;;;;;;5027719;28;8799;-75
2023/05/08 10:34:28;;;;;;;;;12.00;12.00;;;;;;;;5028292;28;8826;-74
2023/05/08 10:36:55;;;;;;;;;12.25;9.50;;;;;;;;5029344;28;8830;-75
2023/05/08 10:39:24;;;;;;;;;9.75;9.25;;;;;;;;5028593;28;8985;-74
2023/05/08 10:41:52;;;;;;;;;10.50;10.00;;;;;;;;5029198;28;9642;-76
2023/05/08 10:44:19;;;;;;;;;10.75;10.75;;;;;;;;5017357;28;8845;-75
2023/05/08 10:46:52;;;;;;;;;14.50;11.50;;;;;;;;5023229;28;8985;-77
2023/05/08 10:49:26;;;;;;;;;14.00;10.75;;;;;;;;5028846;28;8830;-76
2023/05/08 10:52:01;;;;;;;;;10.25;10.00;;;;;;;;5027366;28;8838;-76
2023/05/08 10:54:42;;;;;;;;;12.25;12.25;;;;;;;;5021192;28;8842;-78
2023/05/08 10:57:11;;;;;;;;;11.00;11.00;;;;;;;;5017426;28;8864;-76
2023/05/08 10:59:38;;;;;;;;;13.25;12.25;;;;;;;;5026238;28;8916;-76
2023/05/08 11:02:06;;;;;;;;;14.00;13.00;;;;;;;;5027238;28;8833;-75
2023/05/08 11:04:34;;;;;;;;;10.25;10.25;;;;;;;;5028871;28;8830;-75
2023/05/08 11:07:03;;;;;;;;;9.50;9.50;;;;;;;;5028662;28;8860;-75
2023/05/08 11:09:45;;;;;;;;;11.25;11.25;;;;;;;;5016650;28;8987;-75
2023/05/08 11:12:20;;;;;;;;;10.00;10.00;;;;;;;;5016075;28;8864;-73
2023/05/08 11:14:57;;;;;;;;;13.50;13.50;;;;;;;;5028520;28;8848;-75
2023/05/08 11:17:25;;;;;;;;;11.50;11.50;;;;;;;;5018367;28;8855;-73
2023/05/08 11:19:57;;;;;;;;;14.50;14.00;;;;;;;;5022844;28;8874;-74
2023/05/08 11:22:27;;;;;;;;;9.50;9.50;;;;;;;;5023442;28;8846;-74
2023/05/08 11:24:58;;;;;;;;;11.00;10.50;;;;;;;;5028438;28;8839;-74
2023/05/08 11:28:01;;;;;;;;;14.50;14.50;;;;;;;;5027399;28;8858;-74
2023/05/08 11:30:40;;;;;;;;;12.50;10.50;;;;;;;;5010168;28;8848;-74
2023/05/08 11:33:36;;;;;;;;;10.50;10.00;;;;;;;;5019099;28;8862;-74
2023/05/08 11:36:13;;;;;;;;;8.50;8.50;;;;;;;;5028575;28;8862;-74
2023/05/08 11:38:43;;;;;;;;;7.75;7.75;;;;;;;;5028731;28;8873;-74
2023/05/08 11:41:21;;;;;;;;;8.50;8.50;;;;;;;;5022775;28;8861;-74
2023/05/08 11:44:17;;;;;;;;;9.75;9.75;;;;;;;;5023524;28;8856;-74
2023/05/08 11:46:50;;;;;;;;;9.75;8.25;;;;;;;;5020566;28;8852;-74
2023/05/08 11:49:18;;;;;;;;;7.50;6.25;;;;;;;;5027932;28;8858;-74
2023/05/08 11:51:46;;;;;;;;;6.00;6.00;;;;;;;;5027633;28;8866;-74
2023/05/08 11:54:15;;;;;;;;;8.75;7.25;;;;;;;;5027776;28;8941;-74
2023/05/08 11:56:46;;;;;;;;;11.00;7.50;;;;;;;;5025030;28;8928;-73
2023/05/08 11:59:13;;;;;;;;;7.50;7.50;;;;;;;;5025520;28;8928;-74
2023/05/08 12:01:40;;;;;;;;;8.75;7.25;;;;;;;;5020142;28;8808;-74
2023/05/08 12:04:09;;;;;;;;;5.75;5.75;;;;;;;;5024261;28;8831;-74
2023/05/08 12:06:38;;;;;;;;;9.00;9.00;;;;;;;;5027377;28;8979;-74
2023/05/08 12:09:11;;;;;;;;;11.00;10.00;;;;;;;;5027296;28;9001;-74
2023/05/08 12:11:40;;;;;;;;;6.75;6.75;;;;;;;;5026784;28;8838;-73
2023/05/08 12:14:08;;;;;;;;;5.75;5.75;;;;;;;;5027254;28;8896;-74
2023/05/08 12:16:37;;;;;;;;;6.00;6.00;;;;;;;;5027250;28;8847;-73
2023/05/08 12:19:05;;;;;;;;;5.00;5.00;;;;;;;;5027341;28;8861;-73
2023/05/08 12:21:32;;;;;;;;;7.25;6.50;;;;;;;;5026582;28;8906;-73
2023/05/08 12:24:02;;;;;;;;;6.75;6.75;;;;;;;;5027765;28;8981;-74
2023/05/08 12:26:29;;;;;;;;;5.00;5.00;;;;;;;;5027160;28;8862;-73
2023/05/08 12:28:56;;;;;;;;;5.75;5.75;;;;;;;;5017087;28;8866;-74
2023/05/08 12:31:25;;;;;;;;;6.00;6.00;;;;;;;;5026856;28;8791;-73
2023/05/08 12:33:53;;;;;;;;;6.50;6.50;;;;;;;;5026819;28;8826;-74
2023/05/08 12:36:20;;;;;;;;;6.00;6.00;;;;;;;;5027370;28;8862;-75
2023/05/08 12:38:47;;;;;;;;;8.00;7.75;;;;;;;;5017910;28;8854;-74
2023/05/08 12:41:17;;;;;;;;;8.75;7.00;;;;;;;;5026661;28;8860;-75
2023/05/08 12:43:48;;;;;;;;;8.00;8.00;;;;;;;;5020976;28;8877;-80
2023/05/08 12:46:16;;;;;;;;;7.00;7.00;;;;;;;;5014261;28;8877;-75
2023/05/08 12:48:45;;;;;;;;;11.00;7.00;;;;;;;;5026752;28;8877;-76
2023/05/08 12:51:12;;;;;;;;;6.25;6.25;;;;;;;;5026375;28;8953;-77
2023/05/08 12:53:39;;;;;;;;;9.50;6.50;;;;;;;;5025796;28;8856;-77
2023/05/08 12:56:07;;;;;;;;;5.75;5.75;;;;;;;;5021536;28;8843;-76
2023/05/08 12:58:35;;;;;;;;;6.50;6.50;;;;;;;;5023737;28;8836;-76
2023/05/08 13:01:08;;;;;;;;;7.25;7.25;;;;;;;;5022129;28;8810;-77
2023/05/08 13:03:36;;;;;;;;;6.40;6.40;;;;;;;;5027537;28;8842;-77
2023/05/08 13:06:04;;;;;;;;;6.60;6.20;;;;;;;;5020566;28;8935;-77
2023/05/08 13:08:32;;;;;;;;;6.00;6.00;;;;;;;;5029262;28;8857;-76
2023/05/08 13:11:00;;;;;;;;;10.00;6.80;;;;;;;;5021795;28;8868;-77
2023/05/08 13:13:29;;;;;;;;;8.40;7.00;;;;;;;;5027556;28;8815;-76
2023/05/08 13:15:57;;;;;;;;;5.20;5.20;;;;;;;;5025997;28;8839;-76
2023/05/08 13:18:26;;;;;;;;;5.60;5.60;;;;;;;;5031709;28;8846;-76
2023/05/08 13:20:53;;;;;;;;;6.20;6.20;;;;;;;;5030885;28;8867;-76
2023/05/08 13:23:22;;;;;;;;;8.80;8.20;;;;;;;;5030848;28;9444;-75
2023/05/08 13:25:50;;;;;;;;;8.20;8.20;;;;;;;;5030682;28;8853;-76
2023/05/08 13:28:17;;;;;;;;;7.20;6.80;;;;;;;;5022920;28;8863;-76
2023/05/08 13:30:44;;;;;;;;;6.20;5.00;;;;;;;;5030070;28;8810;-75
2023/05/08 13:33:12;;;;;;;;;7.80;7.80;;;;;;;;5030101;28;8884;-76
2023/05/08 13:35:39;;;;;;;;;8.00;8.00;;;;;;;;5027978;28;8860;-76
2023/05/08 13:38:06;;;;;;;;;7.80;7.80;;;;;;;;5029533;28;8850;-76
2023/05/08 13:40:35;;;;;;;;;5.80;4.60;;;;;;;;5029695;28;8985;-76
2023/05/08 13:43:02;;;;;;;;;8.80;7.20;;;;;;;;5030010;28;8972;-75
2023/05/08 13:45:31;;;;;;;;;6.60;6.60;;;;;;;;5029693;28;8860;-77
2023/05/08 13:47:58;;;;;;;;;7.40;6.00;;;;;;;;5027862;28;8847;-76
2023/05/08 13:50:25;;;;;;;;;8.00;8.00;;;;;;;;5015775;28;9622;-74
2023/05/08 13:52:53;;;;;;;;;7.40;7.40;;;;;;;;5030188;28;8862;-76
2023/05/08 13:55:21;;;;;;;;;8.00;6.60;;;;;;;;5026301;28;9267;-76
2023/05/08 13:57:50;;;;;;;;;5.40;5.40;;;;;;;;5030187;28;8964;-76
2023/05/08 14:00:18;;;;;;;;;8.00;6.60;;;;;;;;5028884;28;8827;-77
2023/05/08 14:02:45;;;;;;;;;7.00;7.00;;;;;;;;5030234;28;8846;-78
2023/05/08 14:05:12;;;;;;;;;7.40;7.40;;;;;;;;5029309;28;8865;-76
2023/05/08 14:07:40;;;;;;;;;7.00;7.00;;;;;;;;5029977;28;8953;-75
2023/05/08 14:10:08;;;;;;;;;6.00;6.00;;;;;;;;5028154;28;8868;-75
2023/05/08 14:12:35;;;;;;;;;7.20;7.20;;;;;;;;5020285;28;8850;-76
2023/05/08 14:15:05;;;;;;;;;10.60;9.20;;;;;;;;5026253;28;9629;-75
2023/05/08 14:17:33;;;;;;;;;9.00;9.00;;;;;;;;5028535;28;8920;-76
2023/05/08 14:20:00;;;;;;;;;10.40;10.40;;;;;;;;5025608;28;8846;-76
2023/05/08 14:22:27;;;;;;;;;8.80;7.00;;;;;;;;5029666;28;8850;-75
2023/05/08 14:24:55;;;;;;;;;8.00;8.00;;;;;;;;5029064;28;8822;-76
2023/05/08 14:27:22;;;;;;;;;6.80;6.80;;;;;;;;5029118;28;8905;-75
2023/05/08 14:29:49;;;;;;;;;6.60;6.60;;;;;;;;5027686;28;9639;-75
2023/05/08 14:32:17;;;;;;;;;7.00;7.00;;;;;;;;5025345;28;8914;-76
2023/05/08 14:34:45;;;;;;;;;9.40;7.20;;;;;;;;5029067;28;8846;-76
2023/05/08 14:37:12;;;;;;;;;5.80;5.80;;;;;;;;5026693;28;8956;-75
2023/05/08 14:39:39;;;;;;;;;7.00;7.00;;;;;;;;5021565;28;8857;-76
2023/05/08 14:42:07;;;;;;;;;7.20;7.20;;;;;;;;5025544;28;8884;-76
2023/05/08 14:44:35;;;;;;;;;5.00;5.00;;;;;;;;5027259;28;8842;-76
2023/05/08 14:47:03;;;;;;;;;9.00;6.80;;;;;;;;5028625;28;8877;-75
2023/05/08 14:49:31;;;;;;;;;8.00;8.00;;;;;;;;5029255;28;8843;-80
2023/05/08 14:51:58;;;;;;;;;8.60;8.60;;;;;;;;5021976;28;8860;-80
2023/05/08 14:54:26;;;;;;;;;7.60;7.60;;;;;;;;5029516;28;8869;-77
2023/05/08 14:56:53;;;;;;;;;9.20;7.60;;;;;;;;5029371;28;8840;-81
2023/05/08 14:59:20;;;;;;;;;9.40;8.00;;;;;;;;5019326;28;8864;-75
2023/05/08 15:01:47;;;;;;;;;6.80;6.80;;;;;;;;5019709;28;8798;-75